Time;durP1;ratioP1;P1;durP2;ratioP2;P2;SDS_P1;SDS_P2;PMS_P1;PMS_P2;Temp;Humidity;BMP_temperature;BMP_pressure;BME280_temperature;BME280_humidity;BME280_pressure;Samples;Min_cycle;Max_cycle;Signal;HPM_P1;HPM_P2
2021/03/06 00:00:03;;;;;;;6.13;3.45;;;2.90;99.90;;;;;;4992396;28;20217;-78
2021/03/06 00:02:29;;;;;;;6.88;4.28;;;2.80;99.90;;;;;;4976992;28;20681;-77
2021/03/06 00:04:56;;;;;;;8.65;5.82;;;3.00;99.90;;;;;;4986887;28;20240;-77
2021/03/06 00:07:22;;;;;;;7.40;3.72;;;2.90;99.90;;;;;;4993619;28;20210;-77
2021/03/06 00:09:49;;;;;;;7.25;4.22;;;2.90;99.90;;;;;;4980198;28;20216;-78
2021/03/06 00:12:16;;;;;;;8.98;3.95;;;2.90;99.90;;;;;;4982899;28;20856;-79
2021/03/06 00:14:42;;;;;;;8.45;4.20;;;2.90;99.90;;;;;;4983410;28;20224;-78
2021/03/06 00:17:09;;;;;;;7.20;3.85;;;2.90;99.60;;;;;;4999616;28;20751;-79
2021/03/06 00:19:35;;;;;;;6.55;3.85;;;2.90;99.40;;;;;;5001899;28;20514;-79
2021/03/06 00:22:01;;;;;;;6.00;3.40;;;2.80;99.30;;;;;;5001406;28;20260;-76
2021/03/06 00:24:29;;;;;;;6.85;3.60;;;2.70;99.50;;;;;;4988590;28;20707;-80
2021/03/06 00:26:55;;;;;;;6.95;4.00;;;2.70;99.60;;;;;;4999249;28;20283;-78
2021/03/06 00:29:23;;;;;;;8.27;4.30;;;2.80;99.50;;;;;;5000623;28;20256;-78
2021/03/06 00:31:49;;;;;;;8.07;4.90;;;2.80;99.80;;;;;;5003054;28;20204;-79
2021/03/06 00:34:15;;;;;;;6.82;4.03;;;2.90;99.80;;;;;;4999924;28;20224;-79
2021/03/06 00:36:42;;;;;;;6.68;3.60;;;2.90;99.70;;;;;;5000585;28;20285;-79
2021/03/06 00:39:08;;;;;;;8.02;4.05;;;2.80;99.40;;;;;;4999021;28;20208;-78
2021/03/06 00:41:35;;;;;;;5.80;3.50;;;2.80;99.70;;;;;;4982877;28;20294;-79
2021/03/06 00:44:01;;;;;;;6.63;4.68;;;2.80;99.60;;;;;;5006634;28;20510;-77
2021/03/06 00:46:29;;;;;;;6.63;3.80;;;2.80;99.30;;;;;;5008318;23;20286;-79
2021/03/06 00:48:56;;;;;;;9.05;4.00;;;2.70;98.80;;;;;;4973261;28;20288;-79
2021/03/06 00:51:24;;;;;;;5.60;3.33;;;2.80;98.70;;;;;;4993246;28;20262;-79
2021/03/06 00:53:50;;;;;;;7.15;4.15;;;2.80;98.90;;;;;;4978954;28;20521;-79
2021/03/06 00:56:16;;;;;;;5.13;3.65;;;2.70;99.00;;;;;;4986135;28;20225;-79
2021/03/06 00:58:43;;;;;;;6.97;3.95;;;2.60;98.90;;;;;;4978923;28;20205;-78
2021/03/06 01:01:10;;;;;;;7.43;4.20;;;2.60;99.60;;;;;;4972784;28;20205;-79
2021/03/06 01:03:38;;;;;;;7.75;4.90;;;2.50;99.40;;;;;;4973423;28;20749;-79
2021/03/06 01:06:05;;;;;;;7.38;4.07;;;2.70;99.50;;;;;;4980916;28;20296;-79
2021/03/06 01:08:31;;;;;;;6.30;3.92;;;2.80;99.50;;;;;;4983999;28;20237;-79
2021/03/06 01:10:58;;;;;;;7.43;4.32;;;2.80;99.10;;;;;;4975295;28;20205;-78
2021/03/06 01:13:25;;;;;;;6.47;3.72;;;2.60;99.30;;;;;;4978170;28;20236;-78
2021/03/06 01:15:51;;;;;;;7.15;3.80;;;2.70;99.50;;;;;;4986297;28;20228;-79
2021/03/06 01:18:18;;;;;;;7.78;4.57;;;2.70;99.50;;;;;;4993200;28;20216;-79
2021/03/06 01:20:45;;;;;;;9.30;4.70;;;2.60;99.50;;;;;;4990655;28;20209;-78
2021/03/06 01:23:12;;;;;;;5.63;3.65;;;2.40;99.50;;;;;;4992399;28;20619;-78
2021/03/06 01:25:39;;;;;;;7.10;4.50;;;2.70;99.80;;;;;;4982089;28;20261;-79
2021/03/06 01:28:06;;;;;;;6.55;4.05;;;2.60;99.90;;;;;;4976261;28;20209;-78
2021/03/06 01:30:33;;;;;;;7.72;4.15;;;2.60;99.70;;;;;;4974429;28;20656;-78
2021/03/06 01:32:59;;;;;;;7.47;4.22;;;2.40;99.90;;;;;;4975072;28;20248;-78
2021/03/06 01:35:26;;;;;;;6.00;4.00;;;2.60;99.90;;;;;;4982340;28;20632;-78
2021/03/06 01:37:54;;;;;;;6.57;4.20;;;2.70;99.90;;;;;;4991689;28;20786;-78
2021/03/06 01:40:24;;;;;;;8.00;4.05;;;2.50;99.60;;;;;;4969496;28;20205;-78
2021/03/06 01:42:51;;;;;;;9.18;4.63;;;2.60;99.90;;;;;;4975330;28;20212;-79
2021/03/06 01:45:18;;;;;;;7.40;4.15;;;2.50;99.90;;;;;;4978713;28;20355;-78
2021/03/06 01:47:45;;;;;;;7.05;4.80;;;2.40;99.90;;;;;;4975514;28;20271;-79
2021/03/06 01:50:14;;;;;;;7.60;4.63;;;2.30;99.90;;;;;;4974474;28;20206;-79
2021/03/06 01:52:40;;;;;;;9.52;5.53;;;2.40;99.90;;;;;;4975492;28;20265;-78
2021/03/06 01:55:09;;;;;;;7.93;4.88;;;2.30;99.90;;;;;;4982518;28;20295;-79
2021/03/06 01:57:35;;;;;;;7.82;5.13;;;2.30;99.90;;;;;;4975111;28;20206;-78
2021/03/06 02:00:04;;;;;;;6.68;4.15;;;2.30;99.90;;;;;;4973541;28;20221;-79
2021/03/06 02:02:30;;;;;;;9.30;4.60;;;2.20;99.90;;;;;;4989448;28;20208;-78
2021/03/06 02:04:57;;;;;;;12.23;4.40;;;2.10;99.90;;;;;;4980996;28;20229;-79
2021/03/06 02:07:23;;;;;;;7.10;4.50;;;2.00;99.90;;;;;;4977210;28;20367;-78
2021/03/06 02:09:49;;;;;;;7.22;4.75;;;2.20;99.90;;;;;;4971434;28;20320;-78
2021/03/06 02:12:24;;;;;;;8.13;4.35;;;2.20;99.90;;;;;;4972762;28;20292;-79
2021/03/06 02:15:14;;;;;;;6.78;4.25;;;2.10;99.90;;;;;;4967105;28;20294;-79
2021/03/06 02:17:50;;;;;;;7.90;4.70;;;2.40;99.90;;;;;;4972823;28;20269;-79
2021/03/06 02:20:43;;;;;;;9.25;6.00;;;2.30;99.90;;;;;;4972376;28;20217;-79
2021/03/06 02:23:43;;;;;;;9.80;4.63;;;2.20;99.90;;;;;;4974712;28;20271;-78
2021/03/06 02:26:28;;;;;;;11.40;5.15;;;2.20;99.90;;;;;;4981519;28;20235;-78
2021/03/06 02:29:20;;;;;;;9.73;5.00;;;2.00;99.90;;;;;;4971877;28;20213;-77
2021/03/06 02:31:49;;;;;;;8.45;5.28;;;2.10;99.90;;;;;;4981389;28;20597;-78
2021/03/06 02:34:18;;;;;;;11.57;5.35;;;2.10;99.90;;;;;;4975430;28;20224;-78
2021/03/06 02:36:48;;;;;;;9.20;4.93;;;2.00;99.90;;;;;;4976080;28;20229;-78
2021/03/06 02:39:18;;;;;;;8.30;5.10;;;2.00;99.90;;;;;;4972160;28;20873;-78
2021/03/06 02:41:46;;;;;;;6.45;4.95;;;1.90;99.90;;;;;;4971823;28;20251;-79
2021/03/06 02:44:13;;;;;;;9.25;5.75;;;2.00;99.90;;;;;;4971871;28;20226;-78
2021/03/06 02:46:42;;;;;;;8.98;5.10;;;1.80;99.90;;;;;;4978956;28;20599;-77
2021/03/06 02:49:09;;;;;;;8.98;5.53;;;2.00;99.90;;;;;;4960693;28;20204;-77
2021/03/06 02:51:39;;;;;;;10.25;5.82;;;1.80;99.90;;;;;;4970570;28;20217;-78
2021/03/06 02:54:06;;;;;;;8.85;4.63;;;1.70;99.90;;;;;;4971143;28;20205;-78
2021/03/06 02:56:33;;;;;;;7.00;4.60;;;1.80;99.90;;;;;;4971524;28;20661;-80
2021/03/06 02:59:29;;;;;;;8.55;5.05;;;1.70;99.90;;;;;;4970731;28;20299;-78
2021/03/06 03:02:09;;;;;;;9.70;5.25;;;1.70;99.90;;;;;;4966544;28;20241;-78
2021/03/06 03:04:46;;;;;;;8.32;5.18;;;1.60;99.90;;;;;;4975974;28;20328;-77
2021/03/06 03:07:21;;;;;;;8.52;5.75;;;1.60;99.90;;;;;;4989896;28;20244;-78
2021/03/06 03:09:51;;;;;;;9.00;4.90;;;1.70;99.90;;;;;;4974276;28;20216;-78
2021/03/06 03:12:23;;;;;;;9.45;5.32;;;1.80;99.90;;;;;;4971529;28;20247;-80
2021/03/06 03:14:54;;;;;;;8.45;5.22;;;1.60;99.90;;;;;;4977928;28;20223;-79
2021/03/06 03:17:31;;;;;;;8.70;5.25;;;1.60;99.90;;;;;;4990957;28;20239;-78
2021/03/06 03:20:03;;;;;;;8.43;4.88;;;1.60;99.90;;;;;;4976227;28;20204;-80
2021/03/06 03:22:33;;;;;;;7.93;5.18;;;1.50;99.90;;;;;;4981559;28;20328;-78
2021/03/06 03:25:02;;;;;;;9.70;5.70;;;1.60;99.90;;;;;;4985220;28;20259;-78
2021/03/06 03:27:30;;;;;;;14.50;5.93;;;1.50;99.90;;;;;;4987271;28;20223;-78
2021/03/06 03:29:58;;;;;;;8.48;5.05;;;1.40;99.90;;;;;;4972625;28;20763;-78
2021/03/06 03:32:26;;;;;;;7.75;4.85;;;1.40;99.90;;;;;;4976824;28;20205;-78
2021/03/06 03:34:55;;;;;;;6.85;4.63;;;1.40;99.90;;;;;;4988467;28;20452;-80
2021/03/06 03:37:22;;;;;;;9.88;5.68;;;1.50;99.90;;;;;;4989744;28;20558;-78
2021/03/06 03:39:49;;;;;;;9.68;5.38;;;1.50;99.90;;;;;;4989065;28;20627;-78
2021/03/06 03:42:18;;;;;;;8.60;5.30;;;1.30;99.90;;;;;;4983645;28;20224;-78
2021/03/06 03:44:45;;;;;;;9.30;5.68;;;1.40;99.90;;;;;;4977547;28;20232;-78
2021/03/06 03:47:12;;;;;;;9.75;4.78;;;1.30;99.90;;;;;;4974137;28;20248;-78
2021/03/06 03:49:39;;;;;;;8.50;5.32;;;1.20;99.90;;;;;;4963946;28;20259;-78
2021/03/06 03:52:05;;;;;;;10.07;5.35;;;1.20;99.90;;;;;;4980594;28;20577;-78
2021/03/06 03:54:33;;;;;;;8.88;5.30;;;1.20;99.90;;;;;;4979514;28;20289;-78
2021/03/06 03:57:00;;;;;;;7.72;5.35;;;1.30;99.90;;;;;;4974785;28;20268;-78
2021/03/06 03:59:27;;;;;;;8.32;5.13;;;1.20;99.90;;;;;;4975591;28;20237;-80
2021/03/06 04:01:53;;;;;;;7.95;5.30;;;1.10;99.90;;;;;;4985880;28;20215;-80
2021/03/06 04:04:28;;;;;;;8.90;5.30;;;1.20;99.90;;;;;;4983758;28;20271;-81
2021/03/06 04:06:56;;;;;;;9.85;5.55;;;1.10;99.90;;;;;;4979499;28;20299;-81
2021/03/06 04:09:22;;;;;;;9.02;5.35;;;1.10;99.90;;;;;;4964208;28;20196;-79
2021/03/06 04:11:49;;;;;;;9.02;5.18;;;1.20;99.90;;;;;;4994936;28;20778;-79
2021/03/06 04:14:16;;;;;;;8.15;5.15;;;1.10;99.90;;;;;;4992181;28;20197;-80
2021/03/06 04:16:42;;;;;;;8.68;5.03;;;1.10;99.90;;;;;;4976318;28;20217;-80
2021/03/06 04:19:09;;;;;;;10.20;5.80;;;1.10;99.90;;;;;;4981131;28;20216;-80
2021/03/06 04:21:35;;;;;;;8.95;5.88;;;1.30;99.90;;;;;;4995370;28;20682;-80
2021/03/06 04:24:02;;;;;;;8.55;5.60;;;1.20;99.90;;;;;;4994905;28;20214;-80
2021/03/06 04:26:29;;;;;;;10.30;4.88;;;1.20;99.90;;;;;;4986573;28;20233;-80
2021/03/06 04:28:55;;;;;;;8.25;4.95;;;1.20;99.90;;;;;;4974470;28;20300;-80
2021/03/06 04:31:21;;;;;;;8.52;4.80;;;1.20;99.90;;;;;;4978313;28;20213;-80
2021/03/06 04:33:48;;;;;;;8.23;4.80;;;1.20;99.90;;;;;;4974099;28;20247;-80
2021/03/06 04:36:15;;;;;;;6.38;4.75;;;1.30;99.90;;;;;;4973406;28;20224;-80
2021/03/06 04:38:41;;;;;;;9.07;5.95;;;1.30;99.90;;;;;;4975330;28;20237;-80
2021/03/06 04:41:08;;;;;;;9.32;5.45;;;1.20;99.90;;;;;;4987295;28;20309;-80
2021/03/06 04:43:35;;;;;;;9.73;5.72;;;1.00;99.90;;;;;;4976831;28;20707;-80
2021/03/06 04:46:01;;;;;;;10.20;5.65;;;1.00;99.90;;;;;;4989664;28;20229;-79
2021/03/06 04:48:28;;;;;;;9.40;5.90;;;1.10;99.90;;;;;;4972726;28;20289;-80
2021/03/06 04:50:55;;;;;;;8.27;4.95;;;1.20;99.90;;;;;;4985936;28;20217;-80
2021/03/06 04:53:21;;;;;;;10.68;5.35;;;1.10;99.90;;;;;;4981805;28;20229;-80
2021/03/06 04:55:48;;;;;;;11.10;6.07;;;1.10;99.90;;;;;;4986173;28;20241;-80
2021/03/06 04:58:15;;;;;;;9.25;5.20;;;1.20;99.90;;;;;;4977485;28;20274;-80
2021/03/06 05:00:41;;;;;;;8.70;5.63;;;1.00;99.90;;;;;;4982852;28;20323;-81
2021/03/06 05:03:07;;;;;;;9.00;5.25;;;1.10;99.90;;;;;;4980985;28;20220;-80
2021/03/06 05:05:34;;;;;;;10.43;5.70;;;0.90;99.90;;;;;;4991632;28;20251;-80
2021/03/06 05:08:00;;;;;;;10.95;5.88;;;0.80;99.90;;;;;;4977181;28;20214;-80
2021/03/06 05:10:26;;;;;;;10.80;5.85;;;0.90;99.90;;;;;;4978097;28;20236;-80
2021/03/06 05:12:53;;;;;;;8.52;5.20;;;1.00;99.90;;;;;;4975908;28;20719;-80
2021/03/06 05:15:20;;;;;;;9.02;5.63;;;0.80;99.90;;;;;;4986902;28;20255;-80
2021/03/06 05:17:46;;;;;;;13.77;5.72;;;0.90;99.90;;;;;;4974545;28;20621;-80
2021/03/06 05:20:13;;;;;;;10.27;5.25;;;1.00;99.90;;;;;;4976838;28;20241;-80
2021/03/06 05:22:39;;;;;;;8.30;5.40;;;0.90;99.90;;;;;;4975903;28;20206;-80
2021/03/06 05:25:07;;;;;;;9.80;5.50;;;0.90;99.90;;;;;;4985675;28;20228;-80
2021/03/06 05:27:34;;;;;;;8.77;5.22;;;1.00;99.90;;;;;;4993456;28;20628;-80
2021/03/06 05:30:00;;;;;;;11.50;5.90;;;0.80;99.90;;;;;;4990331;28;20550;-80
2021/03/06 05:32:27;;;;;;;11.43;6.15;;;1.00;99.90;;;;;;4982306;28;20209;-80
2021/03/06 05:34:54;;;;;;;8.35;5.10;;;0.60;99.90;;;;;;4982516;28;20248;-79
2021/03/06 05:37:21;;;;;;;11.63;5.40;;;0.60;99.90;;;;;;4977899;28;20235;-79
2021/03/06 05:39:47;;;;;;;9.23;5.68;;;0.50;99.90;;;;;;4983420;28;20208;-81
2021/03/06 05:42:14;;;;;;;9.57;6.38;;;0.60;99.90;;;;;;5007075;28;20235;-80
2021/03/06 05:44:42;;;;;;;9.45;5.50;;;0.70;99.90;;;;;;4993087;28;20201;-79
2021/03/06 05:47:08;;;;;;;8.55;5.53;;;0.50;99.90;;;;;;4977045;28;20241;-79
2021/03/06 05:49:36;;;;;;;10.25;5.90;;;0.50;99.90;;;;;;4977429;28;20212;-79
2021/03/06 05:52:06;;;;;;;10.00;5.32;;;0.50;99.90;;;;;;4994361;28;20216;-80
2021/03/06 05:54:35;;;;;;;9.15;5.50;;;0.50;99.90;;;;;;4994609;28;20208;-78
2021/03/06 05:57:03;;;;;;;10.25;5.90;;;0.70;99.90;;;;;;4995107;28;20319;-80
2021/03/06 05:59:30;;;;;;;13.20;7.07;;;0.50;99.90;;;;;;4980997;28;20240;-80
2021/03/06 06:01:56;;;;;;;10.57;6.53;;;0.40;99.90;;;;;;4979653;28;20391;-80
2021/03/06 06:04:27;;;;;;;9.27;5.47;;;0.60;99.90;;;;;;4984950;28;20248;-80
2021/03/06 06:06:57;;;;;;;8.88;5.47;;;0.50;99.90;;;;;;4976476;28;20244;-81
2021/03/06 06:09:24;;;;;;;16.13;6.45;;;0.70;99.90;;;;;;4974802;28;20208;-80
2021/03/06 06:11:50;;;;;;;10.90;6.35;;;0.60;99.90;;;;;;4991756;28;20209;-80
2021/03/06 06:14:16;;;;;;;10.45;5.55;;;0.70;99.90;;;;;;4975770;28;20695;-79
2021/03/06 06:16:43;;;;;;;9.10;5.25;;;0.30;99.90;;;;;;4993347;28;20244;-82
2021/03/06 06:19:10;;;;;;;8.80;5.25;;;0.30;99.90;;;;;;4974354;28;20209;-79
2021/03/06 06:21:41;;;;;;;10.82;5.38;;;0.50;99.90;;;;;;4975795;28;20220;-82
2021/03/06 06:24:10;;;;;;;9.52;5.28;;;0.30;99.90;;;;;;4975536;28;20240;-82
2021/03/06 06:26:37;;;;;;;10.02;6.30;;;0.20;99.90;;;;;;4975216;28;20335;-82
2021/03/06 06:29:04;;;;;;;13.13;5.85;;;0.30;99.90;;;;;;4974769;28;20308;-82
2021/03/06 06:31:30;;;;;;;15.50;6.35;;;0.30;99.90;;;;;;4978957;28;20242;-82
2021/03/06 06:33:57;;;;;;;10.50;6.07;;;0.30;99.90;;;;;;4975409;28;20612;-82
2021/03/06 06:36:38;;;;;;;10.63;6.38;;;0.40;99.90;;;;;;4975007;28;20225;-82
2021/03/06 06:39:06;;;;;;;8.95;6.15;;;0.50;99.90;;;;;;4976822;28;20205;-81
2021/03/06 06:41:53;;;;;;;8.27;5.93;;;0.40;99.90;;;;;;4990120;28;20270;-82
2021/03/06 06:44:19;;;;;;;12.00;6.13;;;0.40;99.90;;;;;;4986298;28;20704;-82
2021/03/06 06:46:46;;;;;;;9.75;5.60;;;0.40;99.90;;;;;;4977099;28;20486;-82
2021/03/06 06:49:12;;;;;;;9.50;5.88;;;0.40;99.90;;;;;;4974560;28;20201;-82
2021/03/06 06:51:57;;;;;;;12.23;6.97;;;0.50;99.90;;;;;;4975272;28;20272;-81
2021/03/06 06:54:23;;;;;;;13.27;6.55;;;0.50;99.90;;;;;;4977773;28;20224;-82
2021/03/06 06:56:51;;;;;;;10.07;6.13;;;0.50;99.90;;;;;;4984649;28;20217;-80
2021/03/06 06:59:18;;;;;;;11.07;6.03;;;0.70;99.90;;;;;;4976261;28;20201;-79
2021/03/06 07:01:45;;;;;;;8.27;4.78;;;0.90;99.90;;;;;;4977283;28;20216;-80
2021/03/06 07:04:12;;;;;;;3.38;2.30;;;0.70;99.90;;;;;;4975111;28;20201;-81
2021/03/06 07:06:38;;;;;;;6.10;3.55;;;1.00;99.90;;;;;;4972911;28;20240;-80
2021/03/06 07:09:10;;;;;;;7.00;4.85;;;0.90;99.90;;;;;;4972399;28;20231;-80
2021/03/06 07:11:37;;;;;;;11.15;5.32;;;0.90;99.90;;;;;;4977626;28;20672;-81
2021/03/06 07:14:04;;;;;;;7.32;5.00;;;0.70;99.90;;;;;;4975346;28;20995;-80
2021/03/06 07:16:58;;;;;;;8.02;5.30;;;0.80;99.90;;;;;;4987248;28;20225;-80
2021/03/06 07:19:26;;;;;;;8.38;4.75;;;1.10;99.90;;;;;;4978240;28;20205;-80
2021/03/06 07:21:53;;;;;;;8.77;4.65;;;1.20;99.90;;;;;;4973064;28;20287;-80
2021/03/06 07:24:19;;;;;;;8.18;4.95;;;1.30;99.90;;;;;;4973830;28;20651;-81
2021/03/06 07:26:51;;;;;;;9.23;5.57;;;1.10;99.90;;;;;;4975543;28;20248;-81
2021/03/06 07:29:19;;;;;;;10.15;5.20;;;1.50;99.90;;;;;;4975543;28;20196;-81
2021/03/06 07:31:49;;;;;;;8.77;5.53;;;1.40;99.90;;;;;;4972977;28;20662;-81
2021/03/06 07:34:18;;;;;;;9.10;4.90;;;1.50;99.90;;;;;;4972038;28;20197;-81
2021/03/06 07:36:46;;;;;;;9.82;5.07;;;1.70;99.90;;;;;;4972157;28;20221;-80
2021/03/06 07:39:14;;;;;;;7.00;4.80;;;1.60;99.90;;;;;;4972106;28;20201;-80
2021/03/06 07:41:44;;;;;;;7.00;4.60;;;1.70;99.80;;;;;;4984765;28;20201;-80
2021/03/06 07:44:15;;;;;;;9.35;5.20;;;1.60;99.50;;;;;;4972474;28;20213;-80
2021/03/06 07:46:42;;;;;;;9.45;5.60;;;1.70;99.70;;;;;;4973782;28;20229;-80
2021/03/06 07:49:12;;;;;;;8.93;5.03;;;1.70;99.90;;;;;;4961385;28;20661;-80
2021/03/06 07:51:42;;;;;;;10.55;5.97;;;1.70;99.80;;;;;;4971947;28;20300;-79
2021/03/06 07:54:11;;;;;;;7.88;5.00;;;1.70;99.40;;;;;;4977630;28;20620;-80
2021/03/06 07:56:38;;;;;;;7.75;4.63;;;1.70;99.40;;;;;;4991533;28;20366;-80
2021/03/06 07:59:04;;;;;;;8.30;5.25;;;1.90;99.40;;;;;;4982158;28;20603;-80
2021/03/06 08:01:32;;;;;;;9.20;4.80;;;2.30;99.30;;;;;;4973371;28;20215;-81
2021/03/06 08:04:00;;;;;;;7.45;4.03;;;2.20;99.10;;;;;;4977942;28;20215;-82
2021/03/06 08:06:28;;;;;;;7.10;4.93;;;2.30;98.30;;;;;;4982308;28;20278;-83
2021/03/06 08:09:05;;;;;;;9.80;4.15;;;2.30;98.10;;;;;;4995845;28;20205;-83
2021/03/06 08:11:43;;;;;;;8.63;4.72;;;2.40;98.20;;;;;;4983035;28;20205;-80
2021/03/06 08:14:31;;;;;;;7.78;4.20;;;2.20;97.80;;;;;;4987963;28;20224;-82
2021/03/06 08:16:58;;;;;;;3.30;1.77;;;2.40;98.00;;;;;;4979039;28;20230;-82
2021/03/06 08:19:30;;;;;;;10.93;4.70;;;2.30;97.80;;;;;;4983683;28;20198;-82
2021/03/06 08:22:13;;;;;;;6.82;5.20;;;2.50;97.90;;;;;;4985389;28;20217;-82
2021/03/06 08:24:40;;;;;;;7.47;5.55;;;2.60;97.90;;;;;;4993698;28;20201;-83
2021/03/06 08:27:21;;;;;;;8.02;4.72;;;2.50;97.60;;;;;;4997320;28;20229;-82
2021/03/06 08:29:53;;;;;;;6.45;4.88;;;2.70;97.40;;;;;;4996423;28;20669;-82
2021/03/06 08:32:35;;;;;;;6.85;5.05;;;2.80;97.70;;;;;;4999088;28;20204;-82
2021/03/06 08:35:21;;;;;;;6.90;4.18;;;2.80;97.40;;;;;;4990156;28;20213;-83
2021/03/06 08:37:49;;;;;;;9.35;4.57;;;3.10;97.30;;;;;;4980614;28;20283;-83
2021/03/06 08:40:27;;;;;;;7.13;3.55;;;3.00;97.00;;;;;;4987143;28;20271;-81
2021/03/06 08:42:55;;;;;;;8.27;4.30;;;3.30;96.90;;;;;;4975892;28;20268;-77
2021/03/06 08:45:24;;;;;;;6.88;4.65;;;3.20;96.60;;;;;;4969305;28;20646;-80
2021/03/06 08:47:53;;;;;;;8.20;4.90;;;3.20;96.60;;;;;;4959785;28;20205;-76
2021/03/06 08:50:23;;;;;;;8.63;5.32;;;3.20;96.80;;;;;;4976321;28;20213;-76
2021/03/06 08:52:58;;;;;;;6.80;4.95;;;3.50;97.10;;;;;;4975538;28;20205;-76
2021/03/06 08:55:26;;;;;;;8.50;5.47;;;3.40;96.60;;;;;;4978231;28;21047;-81
2021/03/06 08:57:52;;;;;;;11.13;4.50;;;3.40;96.40;;;;;;4977867;28;20225;-81
2021/03/06 09:00:23;;;;;;;8.48;3.60;;;3.60;96.10;;;;;;4977114;28;20272;-78
2021/03/06 09:02:50;;;;;;;9.20;5.13;;;3.60;96.10;;;;;;4979614;28;20216;-78
2021/03/06 09:05:19;;;;;;;5.32;3.22;;;3.90;96.10;;;;;;4980483;28;20843;-78
2021/03/06 09:07:48;;;;;;;7.03;4.88;;;3.90;95.30;;;;;;4984327;28;20229;-77
2021/03/06 09:10:26;;;;;;;6.80;4.68;;;3.90;95.40;;;;;;4977645;28;20235;-77
2021/03/06 09:12:54;;;;;;;6.00;4.65;;;3.60;94.60;;;;;;4979525;28;20205;-81
2021/03/06 09:15:27;;;;;;;4.05;1.67;;;3.90;95.70;;;;;;4993751;28;20300;-78
2021/03/06 09:17:53;;;;;;;9.30;4.25;;;3.80;95.30;;;;;;4978678;28;20233;-79
2021/03/06 09:20:20;;;;;;;10.02;5.07;;;4.10;95.10;;;;;;4993017;28;20236;-75
2021/03/06 09:22:49;;;;;;;7.38;4.93;;;4.20;95.20;;;;;;4989557;28;20337;-76
2021/03/06 09:25:27;;;;;;;6.18;2.95;;;4.30;94.30;;;;;;4977652;28;20603;-77
2021/03/06 09:27:54;;;;;;;7.05;3.65;;;4.50;93.40;;;;;;4990826;28;20215;-78
2021/03/06 09:30:23;;;;;;;7.85;5.10;;;4.50;92.70;;;;;;4970629;28;20205;-78
2021/03/06 09:32:50;;;;;;;6.90;4.45;;;4.50;92.30;;;;;;4972833;28;20247;-78
2021/03/06 09:35:19;;;;;;;7.00;4.85;;;4.90;91.80;;;;;;4976463;28;20223;-78
2021/03/06 09:37:47;;;;;;;7.10;4.20;;;4.70;91.20;;;;;;4984452;28;20288;-82
2021/03/06 09:40:21;;;;;;;8.27;4.72;;;4.80;91.20;;;;;;4995136;28;20297;-82
2021/03/06 09:42:51;;;;;;;7.90;4.32;;;4.80;90.50;;;;;;4984833;28;20208;-79
2021/03/06 09:45:18;;;;;;;6.97;4.03;;;4.90;89.20;;;;;;4988555;28;20775;-81
2021/03/06 09:47:45;;;;;;;8.38;4.45;;;5.10;88.10;;;;;;4987611;28;20201;-80
2021/03/06 09:50:13;;;;;;;6.63;4.30;;;4.90;87.60;;;;;;4977535;28;20227;-84
2021/03/06 09:52:40;;;;;;;5.82;3.55;;;5.10;88.40;;;;;;4996088;28;20247;-83
2021/03/06 09:55:18;;;;;;;4.95;3.33;;;5.20;87.60;;;;;;4988449;28;20247;-87
2021/03/06 09:57:44;;;;;;;7.75;4.72;;;5.20;86.80;;;;;;4985601;28;20226;-80
2021/03/06 10:00:22;;;;;;;5.85;3.97;;;5.40;86.50;;;;;;4997161;28;20269;-79
2021/03/06 10:02:49;;;;;;;6.05;4.35;;;5.40;85.50;;;;;;5000494;28;20219;-80
2021/03/06 10:05:20;;;;;;;7.18;4.50;;;5.30;85.00;;;;;;4998699;28;20274;-83
2021/03/06 10:07:48;;;;;;;8.73;4.75;;;5.30;84.90;;;;;;4978545;28;20208;-80
2021/03/06 10:10:15;;;;;;;5.47;2.97;;;5.50;84.40;;;;;;4999817;28;20239;-80
2021/03/06 10:12:45;;;;;;;6.05;4.38;;;5.30;83.40;;;;;;4995817;28;20263;-76
2021/03/06 10:15:13;;;;;;;7.38;4.20;;;5.50;82.80;;;;;;4977875;28;20299;-78
2021/03/06 10:17:40;;;;;;;8.60;4.65;;;5.50;83.30;;;;;;4973394;28;20695;-79
2021/03/06 10:20:07;;;;;;;9.80;4.70;;;5.60;82.40;;;;;;4972001;28;20218;-76
2021/03/06 10:22:44;;;;;;;7.28;4.65;;;5.90;81.60;;;;;;4971690;28;20205;-78
2021/03/06 10:25:12;;;;;;;6.35;4.20;;;5.80;81.90;;;;;;4971644;28;20283;-79
2021/03/06 10:27:41;;;;;;;5.75;4.38;;;5.70;81.00;;;;;;4967617;28;20263;-76
2021/03/06 10:30:13;;;;;;;9.88;4.55;;;5.90;82.50;;;;;;4970913;28;20329;-76
2021/03/06 10:32:41;;;;;;;8.38;4.43;;;6.20;83.90;;;;;;4971540;28;20259;-76
2021/03/06 10:35:28;;;;;;;5.88;4.45;;;6.10;84.90;;;;;;4971568;28;20280;-79
2021/03/06 10:37:55;;;;;;;7.35;3.92;;;6.20;84.20;;;;;;4967762;28;20212;-77
2021/03/06 10:40:38;;;;;;;6.72;4.15;;;6.20;80.30;;;;;;4970298;28;20371;-76
2021/03/06 10:43:05;;;;;;;9.32;4.50;;;5.90;79.00;;;;;;4975657;28;20201;-80
2021/03/06 10:45:32;;;;;;;7.90;4.03;;;6.20;80.10;;;;;;4977157;28;20709;-79
2021/03/06 10:48:03;;;;;;;10.25;4.60;;;6.20;79.60;;;;;;4979569;28;20805;-78
2021/03/06 10:50:31;;;;;;;8.15;4.95;;;6.20;80.90;;;;;;4976038;28;20263;-80
2021/03/06 10:53:15;;;;;;;6.22;3.42;;;6.20;82.40;;;;;;4976015;28;20546;-78
2021/03/06 10:55:42;;;;;;;10.90;5.18;;;6.20;82.30;;;;;;4974411;28;20251;-78
2021/03/06 10:58:09;;;;;;;7.18;4.43;;;6.10;82.90;;;;;;4974583;28;20271;-75
2021/03/06 11:00:37;;;;;;;6.63;4.40;;;6.20;82.30;;;;;;4970048;28;20205;-77
2021/03/06 11:03:05;;;;;;;8.10;3.72;;;6.20;82.80;;;;;;4971563;28;20209;-77
2021/03/06 11:05:32;;;;;;;6.85;4.60;;;6.40;83.10;;;;;;4973438;28;20229;-78
2021/03/06 11:08:12;;;;;;;7.68;3.95;;;6.50;81.10;;;;;;4987727;28;20263;-76
2021/03/06 11:10:39;;;;;;;4.82;2.67;;;6.40;79.90;;;;;;4970432;28;20209;-77
2021/03/06 11:13:06;;;;;;;8.07;4.15;;;6.40;79.50;;;;;;4970366;28;20235;-77
2021/03/06 11:15:34;;;;;;;6.45;3.90;;;6.60;80.70;;;;;;4971370;28;20221;-77
2021/03/06 11:18:03;;;;;;;5.82;3.83;;;6.30;80.40;;;;;;4974787;28;20262;-80
2021/03/06 11:20:32;;;;;;;8.10;3.83;;;6.30;79.90;;;;;;4978602;28;20239;-80
2021/03/06 11:23:00;;;;;;;5.35;2.95;;;6.50;78.80;;;;;;4977070;28;20296;-78
2021/03/06 11:25:27;;;;;;;6.20;3.72;;;6.50;76.70;;;;;;4973236;28;20307;-81
2021/03/06 11:27:56;;;;;;;6.20;4.13;;;6.80;77.50;;;;;;4978382;28;20304;-81
2021/03/06 11:30:30;;;;;;;5.28;2.75;;;6.70;77.60;;;;;;4976530;28;20213;-82
2021/03/06 11:32:57;;;;;;;4.90;2.33;;;6.70;77.80;;;;;;4984340;28;20205;-81
2021/03/06 11:35:25;;;;;;;6.05;3.33;;;6.50;76.30;;;;;;4980093;28;20229;-80
2021/03/06 11:37:53;;;;;;;5.75;3.65;;;6.80;75.90;;;;;;4995926;28;20275;-81
2021/03/06 11:40:22;;;;;;;5.93;3.17;;;6.70;75.70;;;;;;4986659;28;20691;-81
2021/03/06 11:42:49;;;;;;;6.55;3.80;;;6.80;74.40;;;;;;4995066;28;20223;-81
2021/03/06 11:45:18;;;;;;;7.28;4.10;;;6.90;74.90;;;;;;4975077;28;20236;-81
2021/03/06 11:47:45;;;;;;;6.85;4.13;;;7.10;74.90;;;;;;4988517;28;20623;-80
2021/03/06 11:50:14;;;;;;;7.07;4.30;;;6.90;72.70;;;;;;4978087;28;20240;-81
2021/03/06 11:52:42;;;;;;;4.50;3.00;;;6.90;73.80;;;;;;4978797;28;20216;-81
2021/03/06 11:55:11;;;;;;;5.60;3.22;;;7.00;72.80;;;;;;4990190;28;20242;-81
2021/03/06 11:57:39;;;;;;;6.57;3.70;;;7.00;71.70;;;;;;4981392;28;20708;-81
2021/03/06 12:00:08;;;;;;;5.10;3.45;;;7.00;72.50;;;;;;4984567;28;20286;-80
2021/03/06 12:02:40;;;;;;;4.50;2.20;;;7.20;71.70;;;;;;4987586;28;20208;-80
2021/03/06 12:05:08;;;;;;;5.43;2.80;;;6.90;70.20;;;;;;4981312;28;20205;-80
2021/03/06 12:07:35;;;;;;;9.25;5.13;;;6.90;70.20;;;;;;4979810;28;20368;-81
2021/03/06 12:10:04;;;;;;;5.93;3.90;;;6.70;70.60;;;;;;4980237;28;20749;-81
2021/03/06 12:12:31;;;;;;;5.97;3.72;;;7.00;69.00;;;;;;4978809;28;20228;-80
2021/03/06 12:14:57;;;;;;;6.28;3.65;;;7.10;67.60;;;;;;4992216;28;20211;-80
2021/03/06 12:17:24;;;;;;;6.13;3.35;;;7.40;67.90;;;;;;4985938;28;20221;-80
2021/03/06 12:19:50;;;;;;;5.10;3.67;;;7.50;67.40;;;;;;4985386;28;20228;-80
2021/03/06 12:22:17;;;;;;;5.03;3.38;;;7.60;66.50;;;;;;4981820;28;20480;-80
2021/03/06 12:24:44;;;;;;;5.45;4.38;;;7.20;65.60;;;;;;4980678;28;20751;-80
2021/03/06 12:27:12;;;;;;;3.97;2.00;;;7.20;65.80;;;;;;4980089;28;20242;-80
2021/03/06 12:29:38;;;;;;;5.22;3.35;;;7.20;64.70;;;;;;4978144;28;20213;-80
2021/03/06 12:32:06;;;;;;;6.20;3.97;;;7.00;63.80;;;;;;4978119;28;20636;-79
2021/03/06 12:34:33;;;;;;;5.55;3.55;;;7.00;65.00;;;;;;4978284;28;20220;-78
2021/03/06 12:37:00;;;;;;;6.25;3.85;;;7.10;64.90;;;;;;4979899;28;20299;-77
2021/03/06 12:39:26;;;;;;;5.30;3.05;;;7.30;65.80;;;;;;4982420;28;20279;-78
2021/03/06 12:41:53;;;;;;;7.10;4.28;;;7.40;64.60;;;;;;4989128;28;20215;-78
2021/03/06 12:44:21;;;;;;;6.80;4.80;;;7.60;65.30;;;;;;4986069;28;20211;-81
2021/03/06 12:46:48;;;;;;;5.65;3.60;;;7.50;63.80;;;;;;4992053;28;20280;-82
2021/03/06 12:49:15;;;;;;;6.18;4.03;;;7.70;62.90;;;;;;4979505;28;20569;-81
2021/03/06 12:51:41;;;;;;;6.53;2.90;;;7.80;62.40;;;;;;4984567;28;20307;-78
2021/03/06 12:54:08;;;;;;;6.22;3.67;;;7.60;61.80;;;;;;4990645;28;20602;-77
2021/03/06 12:56:35;;;;;;;10.50;2.00;;;7.50;60.70;;;;;;4992181;28;20383;-76
2021/03/06 12:59:01;;;;;;;6.40;2.83;;;7.60;60.00;;;;;;4988545;28;20216;-78
2021/03/06 13:01:30;;;;;;;4.35;3.00;;;7.70;60.10;;;;;;4984298;28;20213;-78
2021/03/06 13:03:57;;;;;;;5.28;3.00;;;7.70;59.80;;;;;;4981924;28;20212;-78